createdAt,value
2018-04-18T00:00:57.168Z,15.10
2018-04-18T00:03:25.488Z,15.03
2018-04-18T00:05:54.591Z,15.00
2018-04-18T00:08:23.472Z,15.07
2018-04-18T00:10:52.558Z,14.93
2018-04-18T00:13:22.060Z,15.00
2018-04-18T00:15:50.424Z,14.86
2018-04-18T00:18:18.758Z,14.72
2018-04-18T00:20:47.174Z,14.69
2018-04-18T00:23:15.576Z,14.69
2018-04-18T00:25:44.693Z,14.68
2018-04-18T00:28:13.099Z,14.38
2018-04-18T00:30:41.696Z,14.28
2018-04-18T00:33:09.995Z,14.39
2018-04-18T00:35:59.778Z,14.47
2018-04-18T00:38:28.155Z,14.16
2018-04-18T00:40:56.508Z,14.14
2018-04-18T00:43:24.859Z,14.23
2018-04-18T00:45:53.223Z,14.30
2018-04-18T00:48:21.651Z,14.29
2018-04-18T00:50:50.188Z,14.05
2018-04-18T00:53:18.527Z,14.04
2018-04-18T00:55:46.866Z,14.08
2018-04-18T00:58:15.426Z,14.18
2018-04-18T01:00:43.927Z,14.23
2018-04-18T01:03:12.294Z,14.24
2018-04-18T01:05:41.293Z,14.11
2018-04-18T01:08:09.642Z,14.18
2018-04-18T01:10:38.005Z,14.10
2018-04-18T01:13:07.585Z,14.08
2018-04-18T01:15:35.937Z,14.02
2018-04-18T01:18:04.275Z,13.90
2018-04-18T01:20:32.752Z,13.95
2018-04-18T01:23:01.559Z,13.94
2018-04-18T01:25:30.167Z,13.95
2018-04-18T01:27:59.323Z,13.78
2018-04-18T01:30:27.724Z,13.69
2018-04-18T01:32:56.211Z,13.70
2018-04-18T01:35:24.786Z,13.58
2018-04-18T01:37:53.176Z,13.53
2018-04-18T01:40:21.544Z,13.60
2018-04-18T01:42:50.028Z,13.39
2018-04-18T01:45:18.494Z,13.48
2018-04-18T01:47:47.409Z,13.49
2018-04-18T01:50:16.602Z,13.39
2018-04-18T01:52:45.024Z,13.50
2018-04-18T01:55:13.547Z,13.35
2018-04-18T01:57:43.180Z,13.45
2018-04-18T02:00:12.576Z,13.45
2018-04-18T02:02:41.060Z,13.32
2018-04-18T02:05:09.562Z,13.25
2018-04-18T02:07:37.924Z,13.25
2018-04-18T02:10:06.408Z,13.33
2018-04-18T02:12:34.862Z,13.35
2018-04-18T02:15:03.441Z,13.39
2018-04-18T02:17:31.775Z,13.23
2018-04-18T02:20:00.702Z,13.06
2018-04-18T02:22:29.201Z,13.21
2018-04-18T02:24:57.812Z,13.30
2018-04-18T02:27:26.568Z,13.33
2018-04-18T02:29:54.962Z,13.25
2018-04-18T02:32:23.327Z,13.17
2018-04-18T02:34:51.763Z,13.17
2018-04-18T02:37:20.131Z,12.97
2018-04-18T02:39:49.296Z,12.89
2018-04-18T02:42:18.367Z,12.89
2018-04-18T02:44:46.684Z,12.97
2018-04-18T02:47:15.170Z,13.02
2018-04-18T02:49:43.989Z,12.95
2018-04-18T02:52:12.373Z,13.08
2018-04-18T02:54:40.710Z,12.86
2018-04-18T02:57:09.079Z,12.69
2018-04-18T02:59:37.671Z,12.68
2018-04-18T03:02:06.044Z,12.73
2018-04-18T03:04:34.760Z,12.69
2018-04-18T03:07:03.906Z,12.35
2018-04-18T03:09:32.336Z,12.54
2018-04-18T03:12:01.465Z,12.57
2018-04-18T03:14:30.342Z,12.62
2018-04-18T03:16:58.888Z,12.51
2018-04-18T03:19:27.329Z,12.51
2018-04-18T03:21:55.794Z,12.56
2018-04-18T03:24:24.129Z,12.51
2018-04-18T03:26:53.249Z,12.39
2018-04-18T03:29:22.323Z,12.20
2018-04-18T03:31:50.639Z,12.26
2018-04-18T03:34:19.777Z,12.32
2018-04-18T03:36:49.639Z,12.10
2018-04-18T03:39:18.734Z,12.11
2018-04-18T03:41:47.894Z,12.03
2018-04-18T03:44:16.432Z,12.15
2018-04-18T03:46:44.768Z,11.92
2018-04-18T03:49:13.385Z,12.23
2018-04-18T03:51:42.547Z,12.12
2018-04-18T03:54:11.206Z,12.07
2018-04-18T03:56:39.661Z,12.18
2018-04-18T03:59:07.979Z,11.89
2018-04-18T04:01:36.438Z,12.02
2018-04-18T04:04:04.804Z,11.84
2018-04-18T04:06:33.566Z,11.73
2018-04-18T04:09:02.074Z,11.70
2018-04-18T04:11:30.954Z,11.82
2018-04-18T04:13:59.377Z,11.80
2018-04-18T04:16:45.204Z,11.72
2018-04-18T04:19:31.116Z,11.65
2018-04-18T04:22:17.695Z,11.82
2018-04-18T04:24:46.116Z,11.87
2018-04-18T04:27:15.342Z,11.90
2018-04-18T04:29:43.923Z,11.85
2018-04-18T04:32:12.457Z,12.09
2018-04-18T04:34:40.973Z,12.10
2018-04-18T04:37:09.658Z,11.96
2018-04-18T04:39:38.110Z,11.99
2018-04-18T04:42:07.227Z,12.09
2018-04-18T04:44:35.584Z,12.25
2018-04-18T04:47:04.678Z,12.36
2018-04-18T04:49:33.883Z,12.38
2018-04-18T04:52:03.356Z,12.32
2018-04-18T04:54:31.879Z,12.44
2018-04-18T04:57:00.962Z,12.57
2018-04-18T04:59:29.346Z,12.64
2018-04-18T05:01:57.827Z,12.80
2018-04-18T05:04:26.945Z,12.74
2018-04-18T05:06:55.305Z,12.75
2018-04-18T05:09:23.674Z,12.87
2018-04-18T05:11:52.294Z,12.87
2018-04-18T05:14:21.183Z,12.85
2018-04-18T05:16:49.684Z,12.86
2018-04-18T05:19:18.089Z,13.13
2018-04-18T05:21:46.468Z,13.26
2018-04-18T05:24:14.821Z,13.45
2018-04-18T05:26:43.137Z,13.54
2018-04-18T05:29:11.514Z,13.63
2018-04-18T05:31:40.003Z,13.69
2018-04-18T05:34:08.451Z,13.81
2018-04-18T05:36:36.916Z,13.75
2018-04-18T05:39:05.845Z,13.73
2018-04-18T05:41:34.327Z,13.81
2018-04-18T05:44:02.699Z,13.90
2018-04-18T05:46:31.035Z,13.97
2018-04-18T05:48:59.438Z,13.99
2018-04-18T05:51:27.807Z,14.01
2018-04-18T05:53:56.169Z,14.11
2018-04-18T05:56:24.532Z,14.30
2018-04-18T05:58:53.054Z,14.52
2018-04-18T06:01:21.375Z,14.64
2018-04-18T06:03:49.702Z,14.92
2018-04-18T06:06:18.123Z,14.82
2018-04-18T06:08:46.398Z,14.86
2018-04-18T06:11:14.780Z,14.63
2018-04-18T06:13:43.107Z,14.89
2018-04-18T06:16:12.203Z,14.87
2018-04-18T06:18:40.543Z,15.02
2018-04-18T06:21:09.126Z,14.84
2018-04-18T06:23:37.445Z,15.23
2018-04-18T06:26:05.749Z,15.18
2018-04-18T06:28:34.089Z,15.39
2018-04-18T06:31:03.171Z,15.78
2018-04-18T06:33:31.516Z,15.81
2018-04-18T06:35:59.893Z,15.89
2018-04-18T06:38:28.231Z,15.86
2018-04-18T06:40:57.327Z,15.96
2018-04-18T06:43:26.523Z,15.96
2018-04-18T06:45:55.659Z,16.16
2018-04-18T06:48:23.987Z,16.27
2018-04-18T06:50:53.095Z,16.44
2018-04-18T06:53:22.588Z,16.30
2018-04-18T06:55:50.930Z,16.64
2018-04-18T06:58:19.274Z,17.08
2018-04-18T07:00:47.625Z,17.26
2018-04-18T07:03:16.724Z,17.43
2018-04-18T07:05:46.184Z,17.56
2018-04-18T07:08:14.533Z,17.82
2018-04-18T07:10:42.928Z,17.96
2018-04-18T07:13:11.288Z,18.25
2018-04-18T07:15:40.436Z,18.55
2018-04-18T07:18:08.790Z,18.71
2018-04-18T07:20:37.176Z,19.04
2018-04-18T07:23:05.498Z,19.33
2018-04-18T07:25:33.829Z,19.59
2018-04-18T07:28:02.271Z,19.86
2018-04-18T07:30:30.702Z,19.98
2018-04-18T07:32:59.017Z,20.36
2018-04-18T07:35:27.536Z,20.61
2018-04-18T07:37:55.852Z,21.02
2018-04-18T07:40:24.196Z,20.98
2018-04-18T07:42:52.591Z,21.47
2018-04-18T07:45:20.905Z,21.70
2018-04-18T07:47:49.253Z,22.14
2018-04-18T07:50:17.848Z,22.29
2018-04-18T07:52:46.160Z,22.61
2018-04-18T07:55:15.197Z,22.97
2018-04-18T07:57:43.551Z,22.97
2018-04-18T08:00:12.693Z,23.10
2018-04-18T08:02:41.229Z,23.33
2018-04-18T08:05:09.604Z,23.36
2018-04-18T08:07:38.722Z,23.73
2018-04-18T08:10:07.081Z,23.99
2018-04-18T08:12:36.484Z,24.40
2018-04-18T08:15:05.588Z,24.59
2018-04-18T08:17:34.710Z,24.85
2018-04-18T08:20:03.079Z,25.04
2018-04-18T08:22:31.520Z,25.10
2018-04-18T08:25:01.371Z,25.58
2018-04-18T08:27:29.715Z,25.82
2018-04-18T08:29:58.028Z,25.91
2018-04-18T08:32:26.355Z,26.20
2018-04-18T08:34:55.875Z,26.44
2018-04-18T08:37:24.970Z,26.44
2018-04-18T08:39:53.314Z,26.79
2018-04-18T08:42:21.667Z,27.11
2018-04-18T08:44:49.982Z,27.37
2018-04-18T08:47:18.309Z,27.49
2018-04-18T08:49:47.434Z,27.57
2018-04-18T08:52:15.791Z,27.87
2018-04-18T08:54:44.158Z,27.65
2018-04-18T08:57:13.630Z,27.73
2018-04-18T08:59:42.009Z,27.94
2018-04-18T09:02:10.526Z,28.39
2018-04-18T09:04:39.847Z,28.75
2018-04-18T09:07:08.186Z,28.79
2018-04-18T09:09:36.563Z,28.93
2018-04-18T09:12:05.130Z,28.92
2018-04-18T09:14:33.431Z,29.07
2018-04-18T09:17:01.762Z,29.23
2018-04-18T09:19:30.496Z,29.63
2018-04-18T09:21:58.827Z,29.81
2018-04-18T09:24:27.204Z,29.43
2018-04-18T09:26:55.561Z,29.94
2018-04-18T09:29:23.983Z,30.21
2018-04-18T09:31:52.315Z,30.39
2018-04-18T09:34:20.649Z,30.52
2018-04-18T09:36:48.957Z,30.79
2018-04-18T09:39:17.277Z,30.90
2018-04-18T09:41:46.244Z,31.29
2018-04-18T09:44:15.340Z,31.29
2018-04-18T09:46:43.653Z,31.58
2018-04-18T09:49:12.008Z,31.73
2018-04-18T09:51:40.542Z,31.68
2018-04-18T09:54:08.886Z,31.73
2018-04-18T09:56:37.397Z,32.07
2018-04-18T09:59:06.091Z,32.53
2018-04-18T10:01:40.289Z,32.57
2018-04-18T10:04:10.397Z,32.62
2018-04-18T10:06:38.852Z,32.49
2018-04-18T10:09:07.212Z,32.28
2018-04-18T10:11:36.327Z,32.22
2018-04-18T10:14:05.395Z,32.39
2018-04-18T10:16:33.749Z,32.82
2018-04-18T10:19:02.064Z,33.32
2018-04-18T10:21:31.156Z,32.51
2018-04-18T10:23:59.844Z,32.69
2018-04-18T10:26:28.183Z,33.20
2018-04-18T10:28:56.506Z,33.51
2018-04-18T10:31:25.635Z,33.57
2018-04-18T10:33:53.977Z,33.40
2018-04-18T10:36:22.306Z,33.57
2018-04-18T10:38:50.661Z,33.84
2018-04-18T10:41:19.017Z,33.97
2018-04-18T10:43:47.353Z,34.50
2018-04-18T10:46:16.002Z,34.55
2018-04-18T10:48:44.317Z,34.57
2018-04-18T10:51:12.641Z,34.79
2018-04-18T10:53:41.767Z,35.04
2018-04-18T10:56:10.073Z,34.86
2018-04-18T10:58:38.390Z,34.36
2018-04-18T11:01:07.795Z,33.42
2018-04-18T11:03:36.891Z,33.67
2018-04-18T11:06:05.987Z,33.69
2018-04-18T11:08:35.587Z,33.89
2018-04-18T11:11:03.918Z,33.74
2018-04-18T11:13:32.221Z,33.76
2018-04-18T11:16:00.550Z,34.06
2018-04-18T11:18:28.897Z,33.77
2018-04-18T11:20:57.255Z,34.30
2018-04-18T11:23:25.650Z,34.61
2018-04-18T11:25:53.954Z,34.71
2018-04-18T11:28:23.057Z,34.73
2018-04-18T11:30:51.794Z,34.15
2018-04-18T11:33:20.164Z,34.03
2018-04-18T11:35:48.508Z,34.66
2018-04-18T11:38:16.837Z,34.83
2018-04-18T11:40:45.163Z,34.61
2018-04-18T11:43:13.488Z,34.52
2018-04-18T11:45:41.848Z,34.39
2018-04-18T11:48:10.175Z,34.19
2018-04-18T11:50:39.303Z,34.43
2018-04-18T11:53:08.072Z,34.24
2018-04-18T11:55:37.188Z,34.03
2018-04-18T11:58:05.581Z,33.96
2018-04-18T12:00:33.956Z,34.04
2018-04-18T12:03:02.402Z,33.88
2018-04-18T12:05:31.514Z,33.84
2018-04-18T12:08:00.632Z,34.19
2018-04-18T12:10:29.007Z,33.02
2018-04-18T12:12:57.343Z,32.96
2018-04-18T12:15:25.985Z,33.36
2018-04-18T12:17:54.302Z,33.27
2018-04-18T12:20:22.641Z,32.27
2018-04-18T12:22:51.013Z,32.82
2018-04-18T12:25:19.343Z,33.03
2018-04-18T12:27:47.686Z,33.37
2018-04-18T12:30:16.043Z,33.73
2018-04-18T12:32:44.385Z,33.98
2018-04-18T12:35:12.695Z,32.76
2018-04-18T12:37:41.350Z,32.20
2018-04-18T12:40:09.664Z,32.56
2018-04-18T12:42:38.000Z,32.71
2018-04-18T12:45:06.339Z,32.68
2018-04-18T12:47:34.661Z,32.96
2018-04-18T12:50:02.993Z,33.18
2018-04-18T12:52:31.341Z,33.40
2018-04-18T12:55:00.442Z,33.62
2018-04-18T12:57:28.816Z,33.73
2018-04-18T12:59:58.131Z,33.82
2018-04-18T13:02:26.631Z,33.94
2018-04-18T13:04:54.981Z,33.95
2018-04-18T13:07:23.381Z,34.07
2018-04-18T13:09:51.874Z,33.64
2018-04-18T13:12:20.243Z,33.59
2018-04-18T13:14:48.599Z,33.53
2018-04-18T13:17:16.932Z,32.80
2018-04-18T13:19:45.282Z,32.39
2018-04-18T13:22:13.734Z,32.22
2018-04-18T13:24:42.828Z,32.30
2018-04-18T13:27:11.933Z,31.77
2018-04-18T13:29:40.302Z,32.30
2018-04-18T13:32:09.390Z,31.78
2018-04-18T13:34:37.711Z,32.10
2018-04-18T13:37:06.065Z,32.53
2018-04-18T13:39:34.403Z,32.58
2018-04-18T13:42:02.751Z,32.94
2018-04-18T13:44:31.156Z,32.95
2018-04-18T13:46:59.473Z,32.49
2018-04-18T13:49:28.571Z,32.25
2018-04-18T13:51:56.946Z,32.50
2018-04-18T13:54:26.059Z,32.74
2018-04-18T13:56:54.413Z,32.83
2018-04-18T13:59:22.764Z,32.97
2018-04-18T14:01:51.093Z,32.91
2018-04-18T14:04:19.659Z,32.35
2018-04-18T14:06:48.395Z,32.63
2018-04-18T14:09:16.716Z,32.42
2018-04-18T14:11:45.047Z,31.47
2018-04-18T14:14:13.423Z,31.44
2018-04-18T14:16:41.742Z,31.48
2018-04-18T14:19:10.088Z,31.20
2018-04-18T14:21:38.442Z,31.04
2018-04-18T14:24:06.781Z,30.65
2018-04-18T14:26:35.110Z,31.00
2018-04-18T14:29:03.717Z,31.11
2018-04-18T14:31:32.084Z,31.66
2018-04-18T14:34:00.381Z,31.51
2018-04-18T14:36:28.758Z,31.56
2018-04-18T14:38:57.082Z,32.10
2018-04-18T14:41:26.178Z,31.95
2018-04-18T14:43:55.323Z,32.03
2018-04-18T14:46:23.652Z,31.67
2018-04-18T14:48:51.980Z,31.72
2018-04-18T14:51:20.617Z,31.52
2018-04-18T14:53:49.732Z,31.79
2018-04-18T14:56:18.057Z,31.69
2018-04-18T14:58:46.422Z,31.76
2018-04-18T15:01:14.773Z,31.49
2018-04-18T15:03:43.129Z,31.30
2018-04-18T15:06:12.503Z,31.23
2018-04-18T15:08:40.832Z,31.19
2018-04-18T15:11:09.173Z,31.13
2018-04-18T15:13:37.996Z,31.11
2018-04-18T15:16:06.321Z,31.09
2018-04-18T15:18:34.622Z,31.06
2018-04-18T15:21:03.009Z,30.93
2018-04-18T15:23:31.549Z,31.06
2018-04-18T15:25:59.900Z,30.73
2018-04-18T15:28:28.317Z,30.81
2018-04-18T15:30:56.602Z,30.84
2018-04-18T15:33:24.921Z,30.75
2018-04-18T15:35:54.112Z,30.74
2018-04-18T15:38:23.200Z,30.72
2018-04-18T15:40:51.532Z,30.44
2018-04-18T15:43:19.900Z,30.14
2018-04-18T15:45:48.308Z,30.27
2018-04-18T15:48:16.667Z,30.19
2018-04-18T15:50:45.032Z,30.09
2018-04-18T15:53:13.504Z,29.74
2018-04-18T15:55:42.607Z,29.65
2018-04-18T15:58:11.932Z,29.61
2018-04-18T16:00:40.295Z,29.71
2018-04-18T16:03:08.641Z,29.44
2018-04-18T16:05:37.003Z,29.40
2018-04-18T16:08:05.335Z,29.31
2018-04-18T16:10:33.644Z,29.35
2018-04-18T16:13:02.023Z,29.14
2018-04-18T16:15:30.579Z,29.15
2018-04-18T16:17:58.899Z,29.19
2018-04-18T16:20:27.454Z,29.18
2018-04-18T16:22:55.803Z,29.21
2018-04-18T16:25:24.135Z,29.06
2018-04-18T16:27:52.486Z,28.99
2018-04-18T16:30:38.612Z,28.90
2018-04-18T16:33:07.127Z,28.73
2018-04-18T16:35:36.213Z,28.77
2018-04-18T16:38:04.548Z,28.55
2018-04-18T16:40:33.016Z,28.63
2018-04-18T16:43:01.397Z,28.49
2018-04-18T16:45:29.810Z,28.25
2018-04-18T16:47:58.314Z,28.25
2018-04-18T16:50:26.662Z,27.89
2018-04-18T16:52:54.996Z,28.04
2018-04-18T16:55:23.363Z,28.04
2018-04-18T16:57:52.613Z,28.08
2018-04-18T17:00:20.965Z,27.95
2018-04-18T17:02:49.649Z,28.04
2018-04-18T17:05:18.031Z,27.80
2018-04-18T17:07:46.849Z,27.61
2018-04-18T17:10:15.299Z,27.63
2018-04-18T17:12:43.721Z,27.37
2018-04-18T17:15:12.047Z,27.52
2018-04-18T17:17:40.456Z,27.44
2018-04-18T17:20:08.807Z,27.46
2018-04-18T17:22:37.168Z,27.42
2018-04-18T17:25:06.686Z,27.33
2018-04-18T17:27:35.841Z,27.20
2018-04-18T17:30:04.195Z,27.00
2018-04-18T17:32:32.561Z,26.82
2018-04-18T17:35:01.021Z,26.89
2018-04-18T17:37:30.116Z,26.65
2018-04-18T17:39:59.378Z,26.59
2018-04-18T17:42:27.818Z,26.58
2018-04-18T17:44:56.190Z,26.41
2018-04-18T17:47:26.916Z,26.26
2018-04-18T17:49:55.420Z,26.40
2018-04-18T17:52:23.830Z,26.36
2018-04-18T17:54:52.308Z,26.39
2018-04-18T17:57:20.654Z,26.26
2018-04-18T17:59:49.101Z,26.08
2018-04-18T18:02:18.304Z,26.07
2018-04-18T18:04:46.653Z,26.08
2018-04-18T18:07:14.994Z,25.77
2018-04-18T18:09:43.990Z,25.91
2018-04-18T18:12:12.324Z,25.94
2018-04-18T18:14:40.685Z,25.78
2018-04-18T18:17:09.048Z,25.70
2018-04-18T18:19:37.397Z,25.64
2018-04-18T18:22:16.414Z,25.52
2018-04-18T18:24:44.831Z,25.53
2018-04-18T18:27:13.195Z,25.38
2018-04-18T18:29:42.007Z,25.48
2018-04-18T18:32:10.403Z,25.27
2018-04-18T18:34:38.879Z,25.05
2018-04-18T18:37:07.303Z,24.91
2018-04-18T18:39:48.111Z,25.08
2018-04-18T18:42:17.302Z,24.93
2018-04-18T18:44:47.546Z,24.91
2018-04-18T18:47:16.720Z,24.78
2018-04-18T18:49:45.504Z,24.73
2018-04-18T18:52:13.863Z,24.69
2018-04-18T18:54:42.951Z,24.67
2018-04-18T18:57:12.087Z,24.58
2018-04-18T18:59:40.452Z,24.41
2018-04-18T19:02:08.830Z,24.43
2018-04-18T19:04:37.212Z,24.12
2018-04-18T19:07:05.559Z,23.74
2018-04-18T19:09:33.911Z,23.99
2018-04-18T19:12:02.967Z,23.94
2018-04-18T19:14:31.312Z,23.85
2018-04-18T19:16:59.849Z,23.82
2018-04-18T19:19:28.260Z,23.63
2018-04-18T19:21:56.600Z,23.59
2018-04-18T19:24:25.104Z,23.56
2018-04-18T19:26:54.249Z,23.31
2018-04-18T19:29:23.418Z,23.25
2018-04-18T19:31:51.783Z,23.16
2018-04-18T19:34:20.448Z,22.86
2018-04-18T19:36:48.804Z,22.95
2018-04-18T19:39:17.198Z,22.87
2018-04-18T19:41:45.591Z,22.82
2018-04-18T19:44:13.933Z,22.74
2018-04-18T19:46:42.300Z,22.78
2018-04-18T19:49:10.785Z,22.85
2018-04-18T19:51:39.158Z,22.89
2018-04-18T19:54:08.449Z,22.78
2018-04-18T19:56:37.275Z,22.72
2018-04-18T19:59:05.648Z,22.66
2018-04-18T20:01:34.032Z,22.65
2018-04-18T20:04:02.387Z,22.35
2018-04-18T20:06:30.739Z,22.44
2018-04-18T20:08:59.091Z,22.58
2018-04-18T20:11:27.531Z,22.63
2018-04-18T20:13:56.723Z,22.42
2018-04-18T20:16:25.882Z,22.32
2018-04-18T20:18:54.616Z,22.21
2018-04-18T20:21:23.726Z,22.23
2018-04-18T20:23:52.841Z,22.29
2018-04-18T20:26:21.276Z,22.23
2018-04-18T20:28:50.431Z,22.02
2018-04-18T20:31:18.770Z,22.05
2018-04-18T20:33:47.953Z,21.95
2018-04-18T20:36:16.352Z,21.95
2018-04-18T20:38:45.460Z,22.01
2018-04-18T20:41:13.917Z,21.65
2018-04-18T20:43:42.256Z,21.63
2018-04-18T20:46:10.623Z,21.48
2018-04-18T20:48:38.976Z,21.64
2018-04-18T20:51:08.088Z,21.62
2018-04-18T20:53:36.473Z,21.48
2018-04-18T20:56:04.943Z,21.48
2018-04-18T20:58:33.307Z,21.43
2018-04-18T21:01:02.456Z,21.31
2018-04-18T21:03:31.287Z,21.33
2018-04-18T21:05:59.653Z,21.01
2018-04-18T21:08:27.987Z,20.98
2018-04-18T21:10:56.437Z,20.94
2018-04-18T21:13:24.861Z,20.90
2018-04-18T21:15:53.651Z,20.96
2018-04-18T21:18:22.051Z,21.03
2018-04-18T21:20:50.464Z,21.04
2018-04-18T21:23:18.937Z,20.93
2018-04-18T21:25:47.649Z,20.83
2018-04-18T21:28:15.989Z,20.83
2018-04-18T21:30:44.311Z,20.85
2018-04-18T21:33:12.675Z,20.75
2018-04-18T21:35:41.034Z,20.74
2018-04-18T21:38:09.409Z,20.70
2018-04-18T21:40:37.980Z,20.64
2018-04-18T21:43:07.251Z,20.62
2018-04-18T21:45:35.600Z,20.58
2018-04-18T21:48:04.763Z,20.66
2018-04-18T21:50:33.136Z,20.73
2018-04-18T21:53:01.481Z,20.69
2018-04-18T21:55:29.902Z,20.61
2018-04-18T21:57:58.386Z,20.50
2018-04-18T22:00:30.734Z,20.54
2018-04-18T22:03:02.730Z,20.58
2018-04-18T22:05:31.192Z,20.41
2018-04-18T22:08:00.625Z,20.45
2018-04-18T22:10:29.200Z,20.46
2018-04-18T22:12:58.235Z,20.47
2018-04-18T22:15:26.689Z,20.39
2018-04-18T22:17:55.199Z,20.22
2018-04-18T22:20:23.517Z,20.21
2018-04-18T22:22:51.826Z,20.39
2018-04-18T22:25:20.971Z,20.39
2018-04-18T22:27:49.325Z,20.38
2018-04-18T22:30:17.664Z,20.36
2018-04-18T22:32:46.159Z,20.31
2018-04-18T22:35:15.255Z,20.47
2018-04-18T22:37:44.416Z,20.26
2018-04-18T22:40:12.779Z,20.38
2018-04-18T22:42:41.144Z,20.19
2018-04-18T22:45:09.469Z,20.28
2018-04-18T22:47:37.867Z,20.25
2018-04-18T22:50:06.983Z,20.05
2018-04-18T22:52:36.079Z,20.12
2018-04-18T22:55:05.690Z,20.21
2018-04-18T22:57:34.018Z,20.18
2018-04-18T23:00:03.173Z,20.12
2018-04-18T23:02:31.544Z,19.89
2018-04-18T23:04:59.873Z,19.96
2018-04-18T23:07:28.198Z,19.93
2018-04-18T23:09:57.315Z,19.81
2018-04-18T23:12:25.631Z,19.86
2018-04-18T23:14:54.105Z,19.83
2018-04-18T23:17:22.703Z,19.90
2018-04-18T23:19:51.041Z,19.96
2018-04-18T23:22:34.045Z,19.99
2018-04-18T23:25:03.145Z,19.88
2018-04-18T23:27:31.509Z,19.78
2018-04-18T23:30:00.653Z,19.67
2018-04-18T23:32:29.006Z,19.72
2018-04-18T23:34:57.360Z,19.71
2018-04-18T23:37:25.868Z,19.71
2018-04-18T23:39:54.220Z,19.64
2018-04-18T23:42:22.581Z,19.51
2018-04-18T23:44:50.954Z,19.59
2018-04-18T23:47:19.314Z,19.54
2018-04-18T23:49:47.650Z,19.62
2018-04-18T23:52:16.000Z,19.58
2018-04-18T23:54:44.329Z,19.48
2018-04-18T23:57:12.690Z,19.47
2018-04-18T23:59:41.903Z,19.28
